Time;durP1;ratioP1;P1;durP2;ratioP2;P2;SDS_P1;SDS_P2;PMS_P1;PMS_P2;Temp;Humidity;BMP_temperature;BMP_pressure;BME280_temperature;BME280_humidity;BME280_pressure;Samples;Min_cycle;Max_cycle;Signal;HPM_P1;HPM_P2
2023/08/03 00:00:53;;;;;;;2.00;1.20;;;;;;;18.04;100.00;98834.53;5073803;28;20032;-73
2023/08/03 00:03:20;;;;;;;1.77;1.30;;;;;;;18.00;100.00;98823.38;5074157;28;20386;-73
2023/08/03 00:05:47;;;;;;;2.78;1.30;;;;;;;18.01;100.00;98827.03;5074503;28;20032;-73
2023/08/03 00:08:13;;;;;;;1.45;1.15;;;;;;;17.94;100.00;98816.25;5089873;28;20086;-75
2023/08/03 00:10:40;;;;;;;2.03;1.20;;;;;;;18.00;100.00;98808.16;5073406;28;20074;-74
2023/08/03 00:13:05;;;;;;;1.40;1.10;;;;;;;18.02;100.00;98805.47;5073686;28;20040;-74
2023/08/03 00:15:31;;;;;;;4.82;1.58;;;;;;;18.03;100.00;98818.56;5073758;28;20127;-73
2023/08/03 00:17:58;;;;;;;1.92;1.40;;;;;;;18.04;100.00;98826.63;5073809;28;20087;-76
2023/08/03 00:20:24;;;;;;;2.42;1.40;;;;;;;18.09;100.00;98828.56;5072474;28;20041;-74
2023/08/03 00:22:50;;;;;;;2.95;1.13;;;;;;;18.08;100.00;98820.47;5073823;28;20043;-73
2023/08/03 00:25:18;;;;;;;1.45;1.17;;;;;;;18.10;100.00;98803.31;5073590;28;20458;-74
2023/08/03 00:27:46;;;;;;;3.53;1.35;;;;;;;18.09;100.00;98793.09;5089488;28;20111;-74
2023/08/03 00:30:11;;;;;;;2.08;1.35;;;;;;;18.12;100.00;98772.47;5073636;28;20027;-74
2023/08/03 00:32:36;;;;;;;1.75;1.25;;;;;;;18.09;100.00;98703.47;5073507;28;20036;-75
2023/08/03 00:35:04;;;;;;;1.73;1.40;;;;;;;18.09;100.00;98715.81;5073529;28;20462;-74
2023/08/03 00:37:31;;;;;;;2.15;1.65;;;;;;;18.03;100.00;98720.28;5072126;28;20473;-75
2023/08/03 00:39:56;;;;;;;2.40;1.50;;;;;;;18.00;100.00;98777.13;5073244;28;20378;-74
2023/08/03 00:42:30;;;;;;;2.83;1.40;;;;;;;18.07;100.00;98793.69;5072008;28;20469;-74
2023/08/03 00:44:58;;;;;;;2.58;1.70;;;;;;;18.07;100.00;98796.59;5073636;28;20025;-73
2023/08/03 00:47:32;;;;;;;3.10;1.65;;;;;;;18.10;100.00;98797.53;5073590;28;20029;-73
2023/08/03 00:49:58;;;;;;;4.53;1.83;;;;;;;18.07;100.00;98795.81;5072205;28;20028;-73
2023/08/03 00:52:23;;;;;;;1.52;1.15;;;;;;;18.06;100.00;98792.16;5088236;28;20120;-73
2023/08/03 00:54:51;;;;;;;1.75;1.52;;;;;;;18.01;100.00;98775.00;5073190;28;20136;-74
2023/08/03 00:57:17;;;;;;;2.20;1.38;;;;;;;17.87;100.00;98768.69;5072076;28;20040;-73
2023/08/03 00:59:44;;;;;;;2.40;1.48;;;;;;;17.91;100.00;98785.63;5071289;28;20047;-73
2023/08/03 01:02:10;;;;;;;4.78;1.90;;;;;;;17.84;100.00;98764.81;5071831;28;20027;-74
2023/08/03 01:04:37;;;;;;;2.85;1.35;;;;;;;17.85;100.00;98722.25;5073389;28;20037;-74
2023/08/03 01:07:03;;;;;;;4.72;1.92;;;;;;;17.88;100.00;98749.22;5073029;28;20060;-72
2023/08/03 01:09:30;;;;;;;2.55;1.60;;;;;;;17.91;100.00;98765.41;5073326;28;20028;-74
2023/08/03 01:11:55;;;;;;;3.05;1.90;;;;;;;17.92;100.00;98790.06;5072349;28;20052;-75
2023/08/03 01:14:22;;;;;;;11.45;1.90;;;;;;;17.92;100.00;98785.06;5073944;28;20063;-74
2023/08/03 01:16:55;;;;;;;2.58;1.83;;;;;;;17.98;100.00;98768.25;5076745;28;20036;-74
2023/08/03 01:19:22;;;;;;;3.67;2.00;;;;;;;17.97;100.00;98768.84;5076792;28;20059;-73
2023/08/03 01:21:49;;;;;;;3.45;2.03;;;;;;;18.01;100.00;98783.69;5058912;28;20077;-74
2023/08/03 01:24:16;;;;;;;2.15;1.90;;;;;;;18.02;100.00;98774.44;5058922;28;20028;-73
2023/08/03 01:26:44;;;;;;;4.35;1.83;;;;;;;18.06;100.00;98792.16;5075495;28;20491;-74
2023/08/03 01:29:24;;;;;;;3.05;1.98;;;;;;;18.13;100.00;98787.66;5092285;28;20111;-73
2023/08/03 01:31:56;;;;;;;4.10;2.00;;;;;;;18.15;100.00;98776.31;5075321;28;20027;-72
2023/08/03 01:34:27;;;;;;;3.75;2.08;;;;;;;18.14;100.00;98790.00;5091844;28;20028;-74
2023/08/03 01:36:54;;;;;;;2.72;1.63;;;;;;;18.13;100.00;98794.22;5092176;28;20550;-75
2023/08/03 01:39:23;;;;;;;3.92;2.00;;;;;;;18.17;100.00;98799.63;5073560;28;20028;-73
2023/08/03 01:41:49;;;;;;;2.58;2.00;;;;;;;18.15;100.00;98797.31;5092196;28;20024;-73
2023/08/03 01:44:27;;;;;;;2.70;1.60;;;;;;;18.17;100.00;98802.53;5075366;28;20444;-73
2023/08/03 01:46:58;;;;;;;2.72;1.73;;;;;;;18.15;100.00;98787.88;5075018;28;20465;-74
2023/08/03 01:49:27;;;;;;;2.10;1.73;;;;;;;18.15;100.00;98791.53;5091734;28;20029;-74
2023/08/03 01:51:54;;;;;;;1.85;1.73;;;;;;;18.13;100.00;98770.31;5091910;28;20473;-74
2023/08/03 01:54:20;;;;;;;3.05;1.73;;;;;;;18.10;100.00;98775.16;5075646;28;20111;-74
2023/08/03 01:56:46;;;;;;;2.30;1.60;;;;;;;18.09;100.00;98779.41;5076307;28;20033;-73
2023/08/03 01:59:12;;;;;;;3.30;1.67;;;;;;;18.11;100.00;98781.72;5075838;28;20048;-76
2023/08/03 02:01:38;;;;;;;1.80;1.58;;;;;;;18.13;100.00;98758.75;5091500;28;20085;-72
2023/08/03 02:04:04;;;;;;;2.97;1.77;;;;;;;18.16;100.00;98777.84;5091643;28;20031;-73
2023/08/03 02:06:29;;;;;;;2.88;1.70;;;;;;;18.18;100.00;98781.69;5075793;28;20043;-73
2023/08/03 02:08:55;;;;;;;2.60;1.83;;;;;;;18.15;100.00;98761.84;5075946;28;20020;-73
2023/08/03 02:11:22;;;;;;;3.90;1.80;;;;;;;18.17;100.00;98765.72;5075477;28;20061;-73
2023/08/03 02:13:48;;;;;;;2.72;2.00;;;;;;;18.19;100.00;98774.56;5075875;28;20032;-73
2023/08/03 02:16:16;;;;;;;3.33;1.90;;;;;;;18.15;100.00;98779.97;5076057;28;20031;-74
2023/08/03 02:18:43;;;;;;;2.53;1.60;;;;;;;18.17;100.00;98799.63;5075715;28;20018;-74
2023/08/03 02:21:11;;;;;;;3.83;1.85;;;;;;;18.19;100.00;98794.03;5091415;28;20477;-73
2023/08/03 02:23:37;;;;;;;3.28;1.80;;;;;;;18.21;100.00;98797.13;5075713;28;20446;-74
2023/08/03 02:26:03;;;;;;;3.10;2.00;;;;;;;18.18;100.00;98796.16;5074529;28;20029;-74
2023/08/03 02:28:32;;;;;;;4.65;1.95;;;;;;;18.19;100.00;98806.38;5075725;28;20035;-73
2023/08/03 02:31:02;;;;;;;2.53;1.80;;;;;;;18.21;100.00;98792.09;5075654;28;20021;-73
2023/08/03 02:33:28;;;;;;;4.10;1.70;;;;;;;18.19;100.00;98799.81;5074429;28;20029;-73
2023/08/03 02:35:56;;;;;;;5.75;1.92;;;;;;;18.20;100.00;98802.13;5075480;28;20032;-75
2023/08/03 02:38:23;;;;;;;3.88;2.38;;;;;;;18.21;100.00;98795.00;5075322;28;20031;-74
2023/08/03 02:40:57;;;;;;;2.20;1.70;;;;;;;18.21;100.00;98785.53;5077648;28;20059;-73
2023/08/03 02:43:27;;;;;;;3.60;1.63;;;;;;;18.15;100.00;98776.31;5075487;28;20481;-74
2023/08/03 02:45:55;;;;;;;1.88;1.60;;;;;;;18.18;100.00;98789.59;5075225;28;20024;-73
2023/08/03 02:48:21;;;;;;;4.13;1.90;;;;;;;18.19;100.00;98802.69;5073850;28;20112;-72
2023/08/03 02:50:47;;;;;;;1.52;1.33;;;;;;;18.20;100.00;98815.81;5073445;28;20120;-75
2023/08/03 02:53:13;;;;;;;2.58;1.67;;;;;;;18.16;100.00;98803.88;5077281;28;20048;-73
2023/08/03 02:55:40;;;;;;;2.35;1.70;;;;;;;18.15;100.00;98822.56;5075312;28;20032;-73
2023/08/03 02:58:06;;;;;;;3.17;1.90;;;;;;;18.12;100.00;98820.84;5074935;28;20523;-73
2023/08/03 03:00:33;;;;;;;3.58;1.50;;;;;;;18.10;100.00;98820.66;5075503;28;20016;-73
2023/08/03 03:03:04;;;;;;;3.50;1.73;;;;;;;18.12;100.00;98826.63;5073596;28;20037;-74
2023/08/03 03:05:31;;;;;;;4.65;1.80;;;;;;;18.14;100.00;98832.59;5073480;28;20024;-74
2023/08/03 03:07:57;;;;;;;2.70;1.73;;;;;;;18.15;100.00;98851.47;5068796;28;20040;-73
2023/08/03 03:10:23;;;;;;;1.63;1.52;;;;;;;18.14;100.00;98867.28;5074719;28;20093;-73
2023/08/03 03:12:53;;;;;;;1.95;1.73;;;;;;;18.15;100.00;98854.38;5074975;28;20115;-75
2023/08/03 03:15:18;;;;;;;3.35;1.77;;;;;;;18.13;100.00;98840.50;5090654;28;20031;-75
2023/08/03 03:17:46;;;;;;;2.67;1.95;;;;;;;18.14;100.00;98844.16;5075198;28;20028;-75
2023/08/03 03:20:14;;;;;;;3.65;2.20;;;;;;;18.18;100.00;98876.34;5074806;28;20027;-74
2023/08/03 03:22:40;;;;;;;3.10;1.67;;;;;;;18.22;100.00;98876.72;5075006;28;20021;-75
2023/08/03 03:25:06;;;;;;;2.72;2.25;;;;;;;18.24;100.00;98889.25;5073267;28;20074;-74
2023/08/03 03:27:33;;;;;;;2.15;1.95;;;;;;;18.26;100.00;98856.88;5074288;28;20097;-73
2023/08/03 03:29:59;;;;;;;2.10;1.92;;;;;;;18.35;100.00;98853.41;5073065;28;20024;-73
2023/08/03 03:32:25;;;;;;;2.63;1.90;;;;;;;18.36;100.00;98860.72;5074337;28;20166;-76
2023/08/03 03:35:06;;;;;;;3.45;2.55;;;;;;;18.40;100.00;98846.63;5073533;28;20033;-73
2023/08/03 03:37:33;;;;;;;3.00;1.95;;;;;;;18.41;100.00;98824.25;5074346;28;20024;-73
2023/08/03 03:40:13;;;;;;;2.33;1.90;;;;;;;18.48;100.00;98820.56;5074427;28;20146;-74
2023/08/03 03:42:38;;;;;;;3.70;2.22;;;;;;;18.51;100.00;98781.78;5074194;28;20039;-75
2023/08/03 03:45:06;;;;;;;3.03;1.70;;;;;;;18.52;100.00;98769.63;5074067;28;20381;-74
2023/08/03 03:47:32;;;;;;;4.88;1.92;;;;;;;18.50;100.00;98818.63;5072854;28;20074;-74
2023/08/03 03:50:06;;;;;;;3.17;2.15;;;;;;;18.57;100.00;98832.28;5072768;28;20428;-72
2023/08/03 03:52:34;;;;;;;2.70;2.25;;;;;;;18.60;100.00;98833.25;5072566;28;20044;-74
2023/08/03 03:55:00;;;;;;;2.67;2.08;;;;;;;18.64;100.00;98866.22;5073914;28;20377;-73
2023/08/03 03:57:27;;;;;;;3.38;2.05;;;;;;;18.61;100.00;98867.41;5089697;28;20469;-73
2023/08/03 03:59:56;;;;;;;4.25;1.67;;;;;;;18.65;100.00;98901.72;5073381;28;20447;-72
2023/08/03 04:02:24;;;;;;;4.22;2.15;;;;;;;18.63;100.00;98902.28;5073804;28;20032;-74
2023/08/03 04:04:51;;;;;;;2.50;1.95;;;;;;;18.64;100.00;98903.06;5074135;28;20039;-73
2023/08/03 04:07:18;;;;;;;4.72;1.80;;;;;;;18.64;100.00;98906.72;5073533;28;20447;-73
2023/08/03 04:09:43;;;;;;;3.70;2.05;;;;;;;18.63;100.00;98905.19;5073744;28;20078;-75
2023/08/03 04:12:10;;;;;;;2.97;1.88;;;;;;;18.62;100.00;98900.75;5055218;28;20041;-74
2023/08/03 04:14:36;;;;;;;2.08;1.77;;;;;;;18.57;100.00;98857.56;5073414;28;20185;-73
2023/08/03 04:17:03;;;;;;;2.22;1.77;;;;;;;18.63;100.00;98829.94;5073721;28;20039;-74
2023/08/03 04:19:29;;;;;;;1.80;1.70;;;;;;;18.62;100.00;98882.63;5073976;28;20025;-75
2023/08/03 04:21:57;;;;;;;4.13;1.73;;;;;;;18.61;100.00;98895.56;5073535;28;20032;-75
2023/08/03 04:24:23;;;;;;;2.40;1.90;;;;;;;18.61;100.00;98902.13;5071967;28;20105;-72
2023/08/03 04:26:49;;;;;;;3.22;1.90;;;;;;;18.61;100.00;98922.38;5088773;28;20048;-74
2023/08/03 04:29:15;;;;;;;3.20;2.17;;;;;;;18.61;100.00;98864.50;5072103;28;20483;-73
2023/08/03 04:31:42;;;;;;;3.70;2.03;;;;;;;18.60;100.00;98911.38;5088313;28;20036;-73
2023/08/03 04:34:08;;;;;;;3.65;1.92;;;;;;;18.65;100.00;98875.66;5073564;28;20058;-73
2023/08/03 04:36:34;;;;;;;2.67;1.90;;;;;;;18.61;100.00;98881.88;5072104;28;20027;-74
2023/08/03 04:39:01;;;;;;;2.15;1.27;;;;;;;18.61;100.00;98870.28;5089107;28;20028;-73
2023/08/03 04:41:27;;;;;;;2.05;1.70;;;;;;;18.66;100.00;98860.63;5072052;28;20016;-74
2023/08/03 04:43:54;;;;;;;3.83;2.05;;;;;;;18.67;100.00;98922.16;5073187;28;20047;-74
2023/08/03 04:46:21;;;;;;;3.78;2.08;;;;;;;18.67;100.00;98922.91;5072982;28;20075;-73
2023/08/03 04:48:49;;;;;;;1.90;1.63;;;;;;;18.66;100.00;98935.88;5075447;28;20020;-75
2023/08/03 04:51:15;;;;;;;2.25;1.77;;;;;;;18.68;100.00;98929.47;5076067;28;20470;-73
2023/08/03 04:53:44;;;;;;;3.45;1.42;;;;;;;18.75;100.00;98942.41;5077288;28;20020;-74
2023/08/03 04:56:12;;;;;;;5.35;1.92;;;;;;;18.84;100.00;98933.09;5092913;28;20032;-72
2023/08/03 04:58:39;;;;;;;5.10;1.65;;;;;;;18.95;100.00;98915.31;5077319;28;20040;-73
2023/08/03 05:01:05;;;;;;;2.53;1.40;;;;;;;19.00;100.00;98896.94;5075474;28;20123;-74
2023/08/03 05:03:33;;;;;;;4.40;1.63;;;;;;;19.03;100.00;98918.94;5077406;28;20085;-74
2023/08/03 05:06:01;;;;;;;3.58;1.40;;;;;;;18.99;100.00;98901.19;5065619;28;20124;-74
2023/08/03 05:08:28;;;;;;;1.95;1.45;;;;;;;18.95;100.00;98837.13;5064558;28;20485;-74
2023/08/03 05:10:54;;;;;;;3.08;1.40;;;;;;;18.95;100.00;98895.03;5070895;28;20024;-73
2023/08/03 05:13:21;;;;;;;1.65;1.45;;;;;;;18.92;100.00;98913.59;5072704;28;20145;-74
2023/08/03 05:15:47;;;;;;;3.38;1.58;;;;;;;18.93;100.00;98891.94;5057009;28;20025;-74
2023/08/03 05:18:27;;;;;;;3.08;1.30;;;;;;;18.90;100.00;98879.44;5056402;28;20068;-74
2023/08/03 05:20:52;;;;;;;3.03;1.45;;;;;;;18.84;100.00;98902.03;5056654;28;20017;-74
2023/08/03 05:23:20;;;;;;;4.78;1.70;;;;;;;18.89;100.00;98891.59;5056435;28;20090;-73
2023/08/03 05:25:53;;;;;;;4.78;1.20;;;;;;;18.93;100.00;98875.34;5055613;28;20033;-74
2023/08/03 05:28:20;;;;;;;3.75;1.60;;;;;;;18.87;100.00;98868.25;5055516;28;20021;-73
2023/08/03 05:30:46;;;;;;;1.08;0.93;;;;;;;18.91;100.00;98871.50;5056880;28;20036;-76
2023/08/03 05:33:12;;;;;;;10.57;2.47;;;;;;;18.99;100.00;98849.06;5056459;28;20485;-74
2023/08/03 05:35:38;;;;;;;17.98;4.75;;;;;;;19.14;100.00;98866.41;5056529;28;20017;-74
2023/08/03 05:38:12;;;;;;;3.25;1.33;;;;;;;19.65;100.00;98865.84;5056360;28;20033;-74
2023/08/03 05:40:41;;;;;;;2.67;1.65;;;;;;;19.81;100.00;98855.66;5038639;28;20099;-76
2023/08/03 05:43:11;;;;;;;4.22;1.50;;;;;;;19.92;100.00;98872.56;5038577;28;20048;-77
2023/08/03 05:45:49;;;;;;;4.38;1.35;;;;;;;20.03;100.00;98888.75;5056373;28;20060;-76
2023/08/03 05:48:19;;;;;;;15.55;3.47;;;;;;;20.07;100.00;98903.59;5053789;28;20040;-76
2023/08/03 05:50:52;;;;;;;4.45;1.77;;;;;;;20.14;100.00;98928.88;5055023;28;20033;-76
2023/08/03 05:53:35;;;;;;;4.47;1.30;;;;;;;20.17;100.00;98929.81;5037080;28;20032;-77
2023/08/03 05:56:08;;;;;;;4.80;1.50;;;;;;;20.18;100.00;98928.44;5056556;28;20036;-77
2023/08/03 05:58:35;;;;;;;3.72;1.80;;;;;;;20.33;100.00;98945.72;5064130;28;20059;-75
2023/08/03 06:01:20;;;;;;;3.15;1.30;;;;;;;20.43;100.00;98942.91;5089803;28;20071;-75
2023/08/03 06:03:47;;;;;;;4.40;2.03;;;;;;;20.50;100.00;98947.88;5075214;28;20041;-76
2023/08/03 06:06:23;;;;;;;3.50;1.17;;;;;;;20.53;100.00;98959.06;5072274;28;20119;-77
2023/08/03 06:08:53;;;;;;;2.00;1.10;;;;;;;20.27;100.00;98951.75;5054753;28;20171;-76
2023/08/03 06:11:20;;;;;;;8.95;1.58;;;;;;;20.15;100.00;98956.50;5055140;28;20462;-75
2023/08/03 06:13:47;;;;;;;5.22;1.25;;;;;;;20.06;100.00;98947.69;5055289;28;20032;-76
2023/08/03 06:16:15;;;;;;;3.67;1.10;;;;;;;19.88;100.00;98959.22;5038280;28;20470;-75
2023/08/03 06:18:41;;;;;;;1.75;1.20;;;;;;;19.83;100.00;98956.53;5054635;28;20036;-77
2023/08/03 06:21:08;;;;;;;3.20;1.80;;;;;;;19.78;100.00;98961.22;5056295;28;20061;-77
2023/08/03 06:23:33;;;;;;;3.25;1.65;;;;;;;19.79;100.00;98962.75;5056390;28;20504;-77
2023/08/03 06:25:59;;;;;;;2.55;1.75;;;;;;;19.79;100.00;98973.59;5056211;28;20534;-77
2023/08/03 06:28:25;;;;;;;4.82;1.55;;;;;;;19.62;100.00;98991.66;5055799;28;20041;-75
2023/08/03 06:30:52;;;;;;;3.35;1.25;;;;;;;19.66;100.00;98985.47;5055727;28;20025;-77
2023/08/03 06:33:24;;;;;;;5.45;1.40;;;;;;;19.59;100.00;98986.28;5055392;28;20376;-75
2023/08/03 06:35:53;;;;;;;2.50;1.20;;;;;;;19.53;100.00;98972.00;5038380;28;20126;-75
2023/08/03 06:38:22;;;;;;;3.53;1.50;;;;;;;19.48;100.00;98967.97;5054125;28;20028;-76
2023/08/03 06:40:48;;;;;;;4.80;1.35;;;;;;;19.52;100.00;98964.66;5055482;28;20040;-76
2023/08/03 06:43:14;;;;;;;3.60;1.33;;;;;;;19.59;100.00;98975.44;5037379;28;20025;-76
2023/08/03 06:45:43;;;;;;;5.13;1.30;;;;;;;19.69;100.00;98981.38;5059967;28;20376;-74
2023/08/03 06:48:09;;;;;;;2.65;1.13;;;;;;;19.67;100.00;98976.16;5074272;28;20089;-75
2023/08/03 06:50:35;;;;;;;5.32;1.60;;;;;;;19.65;100.00;98986.81;5057452;28;20054;-76
2023/08/03 06:53:16;;;;;;;1.83;1.20;;;;;;;19.60;100.00;99005.22;5074004;28;20036;-75
2023/08/03 06:55:44;;;;;;;2.08;1.20;;;;;;;19.53;100.00;99010.44;5074498;28;20093;-75
2023/08/03 06:58:13;;;;;;;6.20;1.52;;;;;;;19.45;100.00;99017.66;5063838;28;20462;-76
2023/08/03 07:00:41;;;;;;;1.85;1.25;;;;;;;19.43;100.00;99005.84;5057497;28;20037;-76
2023/08/03 07:03:13;;;;;;;3.92;1.55;;;;;;;19.43;100.00;99006.63;5053650;28;20025;-77
2023/08/03 07:05:39;;;;;;;3.80;1.70;;;;;;;19.54;100.00;99000.41;5070413;28;20477;-76
2023/08/03 07:08:04;;;;;;;2.97;1.35;;;;;;;19.60;100.00;98985.69;5067957;28;20581;-84
2023/08/03 07:10:33;;;;;;;5.10;2.00;;;;;;;19.65;100.00;98970.19;5073473;28;20123;-81
2023/08/03 07:12:59;;;;;;;3.58;1.17;;;;;;;20.05;100.00;98984.66;5073724;28;20047;-77
2023/08/03 07:15:25;;;;;;;4.75;1.20;;;;;;;20.19;100.00;98956.88;5073842;28;20385;-79
2023/08/03 07:17:52;;;;;;;3.20;1.20;;;;;;;20.31;100.00;98952.09;5074442;28;20032;-77
2023/08/03 07:20:18;;;;;;;6.03;1.45;;;;;;;20.39;100.00;98949.16;5060109;28;20029;-81
2023/08/03 07:22:45;;;;;;;4.88;1.63;;;;;;;20.54;100.00;98963.50;5055606;28;20031;-79
2023/08/03 07:25:11;;;;;;;2.83;1.40;;;;;;;20.60;100.00;98969.81;5037060;28;20386;-82
2023/08/03 07:27:40;;;;;;;3.50;1.40;;;;;;;20.66;100.00;98926.78;5053802;28;20086;-83
2023/08/03 07:30:08;;;;;;;2.95;1.02;;;;;;;20.32;100.00;98932.56;5054772;28;20029;-80
2023/08/03 07:32:34;;;;;;;2.72;1.20;;;;;;;20.33;100.00;98934.13;5053632;28;20071;-81
2023/08/03 07:35:02;;;;;;;2.33;0.90;;;;;;;20.38;100.00;98941.81;5055047;28;20028;-84
2023/08/03 07:37:27;;;;;;;2.47;1.15;;;;;;;20.46;100.00;98947.53;5053715;28;20041;-83
2023/08/03 07:39:54;;;;;;;8.77;1.20;;;;;;;20.62;100.00;98919.88;5053346;28;20075;-79
2023/08/03 07:42:19;;;;;;;4.05;1.40;;;;;;;20.74;100.00;98881.03;5053549;28;20458;-82
2023/08/03 07:44:45;;;;;;;2.83;1.38;;;;;;;20.83;100.00;98940.59;5036444;28;20064;-82
2023/08/03 07:47:11;;;;;;;3.10;1.27;;;;;;;20.78;100.00;98938.69;5054587;28;20462;-83
2023/08/03 07:49:45;;;;;;;3.33;1.15;;;;;;;20.97;100.00;98973.72;5053467;28;20055;-82
2023/08/03 07:52:11;;;;;;;6.60;1.75;;;;;;;21.22;100.00;98967.81;5036311;28;20036;-80
2023/08/03 07:54:37;;;;;;;1.83;1.10;;;;;;;21.36;100.00;98959.47;5053357;28;20024;-82
2023/08/03 07:57:04;;;;;;;3.72;1.33;;;;;;;21.84;100.00;98980.13;5053195;28;20041;-81
2023/08/03 07:59:30;;;;;;;10.02;1.63;;;;;;;22.48;100.00;98991.16;5053013;28;20052;-81
2023/08/03 08:01:59;;;;;;;7.07;1.52;;;;;;;23.01;100.00;98985.75;5034859;28;20036;-81
2023/08/03 08:04:38;;;;;;;6.37;1.40;;;;;;;23.48;100.00;98972.53;5052854;28;20425;-82
2023/08/03 08:07:09;;;;;;;3.72;1.35;;;;;;;23.69;100.00;98958.09;5052751;28;20021;-81
2023/08/03 08:09:35;;;;;;;2.75;1.10;;;;;;;23.73;100.00;98955.47;5052714;28;20048;-81
2023/08/03 08:12:01;;;;;;;1.83;1.05;;;;;;;23.33;100.00;98959.03;5051452;28;20401;-81
2023/08/03 08:14:27;;;;;;;3.40;1.38;;;;;;;23.00;100.00;98982.06;5052640;28;20474;-81
2023/08/03 08:17:12;;;;;;;6.80;1.40;;;;;;;22.82;100.00;98966.84;5052586;28;20024;-82
2023/08/03 08:19:47;;;;;;;2.67;1.20;;;;;;;22.82;100.00;98992.28;5052665;28;20166;-81
2023/08/03 08:22:18;;;;;;;6.00;1.60;;;;;;;22.91;100.00;98977.75;5051951;28;20103;-81
2023/08/03 08:24:44;;;;;;;4.15;1.30;;;;;;;22.67;100.00;98980.94;5052648;28;20032;-82
2023/08/03 08:27:09;;;;;;;5.28;1.50;;;;;;;22.35;100.00;98965.38;5052731;28;20029;-82
2023/08/03 08:29:37;;;;;;;2.00;1.20;;;;;;;22.19;100.00;98963.31;5053565;28;20040;-81
2023/08/03 08:32:03;;;;;;;3.58;1.27;;;;;;;22.12;100.00;98956.25;5053589;28;20486;-81
2023/08/03 08:34:30;;;;;;;8.40;1.65;;;;;;;22.04;100.00;98953.44;5053739;28;20108;-82
2023/08/03 08:36:57;;;;;;;2.25;1.00;;;;;;;21.87;100.00;98959.34;5053552;28;20020;-80
2023/08/03 08:39:23;;;;;;;3.83;1.50;;;;;;;21.82;100.00;98945.88;5053698;28;20028;-81
2023/08/03 08:41:50;;;;;;;3.90;1.52;;;;;;;21.77;100.00;98949.81;5053560;28;20091;-82
2023/08/03 08:44:15;;;;;;;4.30;1.38;;;;;;;21.68;100.00;98947.63;5052191;28;20044;-80
2023/08/03 08:46:45;;;;;;;5.03;1.45;;;;;;;21.58;100.00;98958.44;5052258;28;20025;-80
2023/08/03 08:49:11;;;;;;;7.57;1.70;;;;;;;21.93;100.00;98961.97;5053448;28;20051;-82
2023/08/03 08:51:41;;;;;;;3.38;1.10;;;;;;;22.77;100.00;98978.78;5053179;28;20028;-82
2023/08/03 08:54:06;;;;;;;3.78;1.10;;;;;;;23.79;100.00;98967.59;5052219;28;20040;-81
2023/08/03 08:56:32;;;;;;;2.95;1.40;;;;;;;24.52;100.00;98958.97;5052266;28;20025;-81
2023/08/03 08:58:57;;;;;;;3.28;1.40;;;;;;;25.12;100.00;98957.97;5051799;28;20037;-83
2023/08/03 09:01:22;;;;;;;2.60;1.05;;;;;;;25.26;94.77;98971.38;5051944;28;20045;-82
2023/08/03 09:03:51;;;;;;;3.42;1.30;;;;;;;25.42;90.43;98981.25;5053310;28;20062;-81
2023/08/03 09:06:22;;;;;;;3.67;1.20;;;;;;;25.37;92.56;98973.59;5053162;28;20493;-80
2023/08/03 09:08:56;;;;;;;3.15;1.10;;;;;;;25.44;90.55;98971.81;5053446;28;20025;-81
2023/08/03 09:11:41;;;;;;;5.45;1.23;;;;;;;25.15;94.19;98972.06;5051994;28;20028;-81
2023/08/03 09:14:08;;;;;;;2.35;1.17;;;;;;;24.75;96.22;98963.44;5052998;28;20033;-82
2023/08/03 09:16:34;;;;;;;3.58;1.38;;;;;;;24.69;98.05;98972.56;5051660;28;20074;-83
2023/08/03 09:19:08;;;;;;;2.47;1.10;;;;;;;24.94;97.86;98972.84;5051888;28;20467;-82
2023/08/03 09:21:34;;;;;;;1.98;1.10;;;;;;;25.37;94.73;98966.97;5053196;28;20061;-82
2023/08/03 09:24:15;;;;;;;2.53;1.42;;;;;;;25.89;88.73;98990.94;5052973;28;20041;-84
2023/08/03 09:26:42;;;;;;;4.18;1.02;;;;;;;25.53;91.89;98999.50;5052243;28;20036;-83
2023/08/03 09:29:13;;;;;;;1.88;1.17;;;;;;;25.61;91.78;99005.88;5053959;28;20079;-81
2023/08/03 09:31:40;;;;;;;3.33;1.20;;;;;;;25.56;92.18;99012.84;5054585;28;20127;-81
2023/08/03 09:34:06;;;;;;;3.67;1.17;;;;;;;25.32;92.91;99021.50;5037297;28;20104;-81
2023/08/03 09:36:34;;;;;;;4.90;1.20;;;;;;;24.78;95.08;99029.41;5056342;28;20037;-81
2023/08/03 09:39:10;;;;;;;1.77;1.00;;;;;;;24.24;100.00;99021.22;5057065;28;20032;-80
2023/08/03 09:41:37;;;;;;;3.60;1.20;;;;;;;23.80;100.00;99007.78;5055628;28;20040;-80
2023/08/03 09:44:05;;;;;;;2.17;1.10;;;;;;;23.77;100.00;99022.84;5055577;28;20091;-81
2023/08/03 09:46:39;;;;;;;3.10;1.20;;;;;;;23.67;100.00;99008.28;5055545;28;20029;-81
2023/08/03 09:49:05;;;;;;;7.25;1.67;;;;;;;23.65;100.00;99002.31;5056656;28;20108;-80
2023/08/03 09:51:34;;;;;;;3.90;1.35;;;;;;;23.38;100.00;98993.72;5054675;28;20496;-82
2023/08/03 09:54:18;;;;;;;4.13;1.40;;;;;;;23.17;100.00;99001.53;5038636;28;20064;-82
2023/08/03 09:56:52;;;;;;;5.20;1.48;;;;;;;23.14;100.00;99003.56;5040294;28;20029;-81
2023/08/03 09:59:23;;;;;;;4.28;1.00;;;;;;;23.14;100.00;99002.78;5056413;28;20114;-81
2023/08/03 10:01:52;;;;;;;3.17;1.05;;;;;;;23.17;100.00;99019.81;5055106;28;20028;-81
2023/08/03 10:04:19;;;;;;;4.65;1.08;;;;;;;23.15;100.00;99008.00;5055151;28;20108;-82
2023/08/03 10:06:46;;;;;;;6.18;1.17;;;;;;;23.15;100.00;99008.00;5021623;28;20033;-82
2023/08/03 10:09:20;;;;;;;3.70;1.20;;;;;;;22.89;100.00;99024.25;5055248;28;20032;-81
2023/08/03 10:11:49;;;;;;;4.95;1.38;;;;;;;22.83;100.00;99005.47;5054998;28;20036;-81
2023/08/03 10:14:24;;;;;;;6.07;1.33;;;;;;;22.93;100.00;98988.81;5055106;28;20363;-81
2023/08/03 10:16:51;;;;;;;4.15;0.80;;;;;;;23.20;97.86;98992.34;5055958;28;20032;-81
2023/08/03 10:19:16;;;;;;;3.08;0.90;;;;;;;23.52;100.00;99002.00;5056112;28;20028;-81
2023/08/03 10:21:50;;;;;;;3.15;1.17;;;;;;;23.86;94.03;99009.63;5054911;28;20033;-81
2023/08/03 10:24:18;;;;;;;6.18;0.95;;;;;;;23.98;91.15;99008.38;5037768;28;20438;-81
2023/08/03 10:26:45;;;;;;;4.07;0.80;;;;;;;24.14;91.30;99000.81;5054377;28;20090;-82
2023/08/03 10:29:10;;;;;;;3.08;1.00;;;;;;;24.30;87.38;99000.47;5054381;28;20486;-81
2023/08/03 10:31:55;;;;;;;3.55;0.95;;;;;;;24.54;87.12;99014.59;5054206;28;20029;-81
2023/08/03 10:34:29;;;;;;;1.92;0.73;;;;;;;24.59;79.95;99007.66;5054361;28;20548;-82
2023/08/03 10:36:58;;;;;;;2.45;0.90;;;;;;;24.70;79.61;99000.38;5054583;28;20033;-80
2023/08/03 10:39:58;;;;;;;2.42;0.77;;;;;;;25.18;78.79;98994.22;5056124;28;20035;-81
2023/08/03 10:42:32;;;;;;;4.22;0.95;;;;;;;25.53;79.25;99002.41;5038020;28;20029;-80
2023/08/03 10:45:25;;;;;;;2.85;0.93;;;;;;;25.64;73.19;98996.59;5055711;28;20086;-81
2023/08/03 10:47:52;;;;;;;3.58;0.93;;;;;;;25.53;72.71;98991.47;5055200;28;20031;-82
2023/08/03 10:50:20;;;;;;;2.85;0.73;;;;;;;25.13;79.87;98989.50;5055522;28;20029;-83
2023/08/03 10:52:46;;;;;;;4.97;0.90;;;;;;;25.21;76.14;98984.19;5055414;28;20029;-81
2023/08/03 10:55:24;;;;;;;1.42;0.82;;;;;;;25.33;77.66;98993.75;5054149;28;20040;-81
2023/08/03 10:57:50;;;;;;;4.10;0.73;;;;;;;25.11;79.78;98998.13;5055350;28;20060;-81
2023/08/03 11:00:16;;;;;;;1.60;0.75;;;;;;;25.18;78.70;98996.38;5053615;28;20084;-81
2023/08/03 11:02:42;;;;;;;6.93;1.10;;;;;;;25.23;77.45;99006.97;5055058;28;20079;-80
2023/08/03 11:05:11;;;;;;;4.60;0.80;;;;;;;25.28;73.33;99032.94;5053963;28;20033;-80
2023/08/03 11:07:39;;;;;;;5.55;1.02;;;;;;;25.35;75.44;99016.53;5037716;28;20040;-81
2023/08/03 11:10:10;;;;;;;4.50;0.70;;;;;;;25.36;76.20;99018.84;5055243;28;20382;-82
2023/08/03 11:12:36;;;;;;;11.23;0.93;;;;;;;25.42;75.22;99024.34;5054721;28;20119;-83
2023/08/03 11:15:02;;;;;;;3.00;0.88;;;;;;;25.51;72.75;99014.75;5053613;28;20474;-81
2023/08/03 11:17:30;;;;;;;1.77;0.82;;;;;;;25.74;69.55;99034.53;5054699;28;20572;-82
2023/08/03 11:19:58;;;;;;;2.33;0.70;;;;;;;25.57;64.79;99029.78;5053285;28;20057;-81
2023/08/03 11:22:32;;;;;;;7.43;0.90;;;;;;;25.64;67.83;99034.63;5053697;28;20029;-82
2023/08/03 11:25:04;;;;;;;3.03;0.82;;;;;;;25.61;71.60;99024.19;5054570;28;20029;-82
2023/08/03 11:27:30;;;;;;;1.83;0.70;;;;;;;25.36;71.76;99026.84;5053676;28;20025;-80
2023/08/03 11:29:57;;;;;;;2.42;0.77;;;;;;;25.20;74.09;99026.53;5053284;28;20033;-81
2023/08/03 11:32:32;;;;;;;4.47;0.90;;;;;;;24.98;75.34;99025.78;5053346;28;20037;-81